Time;durP1;ratioP1;P1;durP2;ratioP2;P2;SDS_P1;SDS_P2;PMS_P1;PMS_P2;Temp;Humidity;BMP_temperature;BMP_pressure;BME280_temperature;BME280_humidity;BME280_pressure;Samples;Min_cycle;Max_cycle;Signal;HPM_P1;HPM_P2
2022/09/02 00:00:13;;;;;;;7.3;5.65;;;;;;;10.92;72.86719;95416.86;;;;
2022/09/02 00:01:14;;;;;;;7.3;5.65;;;;;;;10.92;72.86719;95416.86;;;;
2022/09/02 00:02:17;;;;;;;7.3;5.65;;;;;;;10.92;72.86719;95416.86;;;;
2022/09/02 00:03:17;;;;;;;7.3;5.65;;;;;;;10.92;72.86719;95416.86;;;;
2022/09/02 00:04:19;;;;;;;7.3;5.65;;;;;;;10.92;72.86719;95416.86;;;;
2022/09/02 00:05:23;;;;;;;7.3;5.65;;;;;;;10.92;72.86719;95416.86;;;;
2022/09/02 00:06:23;;;;;;;6.799999;6.1;;;;;;;10.91;73.14453;95413.48;;;;
2022/09/02 00:07:25;;;;;;;6.799999;6.1;;;;;;;10.91;73.14453;95413.48;;;;
2022/09/02 00:08:25;;;;;;;6.799999;6.1;;;;;;;10.91;73.14453;95413.48;;;;
2022/09/02 00:09:26;;;;;;;6.799999;6.1;;;;;;;10.91;73.14453;95413.48;;;;
2022/09/02 00:10:27;;;;;;;6.799999;6.1;;;;;;;10.91;73.14453;95413.48;;;;
2022/09/02 00:11:28;;;;;;;6.799999;6.1;;;;;;;10.91;73.14453;95413.48;;;;
2022/09/02 00:12:31;;;;;;;6.799999;6.1;;;;;;;10.91;73.14453;95413.48;;;;
2022/09/02 00:13:31;;;;;;;6.799999;6.1;;;;;;;10.91;73.14453;95413.48;;;;
2022/09/02 00:14:33;;;;;;;6.799999;6.1;;;;;;;10.91;73.14453;95413.48;;;;
2022/09/02 00:15:36;;;;;;;6.799999;6.1;;;;;;;10.91;73.14453;95413.48;;;;
2022/09/02 00:16:37;;;;;;;8.15;6.500001;;;;;;;10.82;73.39941;95404.6;;;;
2022/09/02 00:17:39;;;;;;;8.15;6.500001;;;;;;;10.82;73.39941;95404.6;;;;
2022/09/02 00:18:40;;;;;;;8.15;6.500001;;;;;;;10.82;73.39941;95404.6;;;;
2022/09/02 00:19:41;;;;;;;8.15;6.500001;;;;;;;10.82;73.39941;95404.6;;;;
2022/09/02 00:20:41;;;;;;;8.15;6.500001;;;;;;;10.82;73.39941;95404.6;;;;
2022/09/02 00:21:44;;;;;;;8.15;6.500001;;;;;;;10.82;73.39941;95404.6;;;;
2022/09/02 00:22:45;;;;;;;8.15;6.500001;;;;;;;10.82;73.39941;95404.6;;;;
2022/09/02 00:23:46;;;;;;;8.15;6.500001;;;;;;;10.82;73.39941;95404.6;;;;
2022/09/02 00:24:48;;;;;;;8.15;6.500001;;;;;;;10.82;73.39941;95404.6;;;;
2022/09/02 00:25:49;;;;;;;8.15;6.500001;;;;;;;10.82;73.39941;95404.6;;;;
2022/09/02 00:26:49;;;;;;;8.15;6.500001;;;;;;;10.82;73.39941;95404.6;;;;
2022/09/02 00:27:50;;;;;;;6.700001;6.099999;;;;;;;10.79;73.64258;95395.35;;;;
2022/09/02 00:28:50;;;;;;;6.700001;6.099999;;;;;;;10.79;73.64258;95395.35;;;;
2022/09/02 00:29:51;;;;;;;6.700001;6.099999;;;;;;;10.79;73.64258;95395.35;;;;
2022/09/02 00:30:51;;;;;;;6.700001;6.099999;;;;;;;10.79;73.64258;95395.35;;;;
2022/09/02 00:31:52;;;;;;;6.700001;6.099999;;;;;;;10.79;73.64258;95395.35;;;;
2022/09/02 00:32:54;;;;;;;6.700001;6.099999;;;;;;;10.79;73.64258;95395.35;;;;
2022/09/02 00:33:54;;;;;;;6.700001;6.099999;;;;;;;10.79;73.64258;95395.35;;;;
2022/09/02 00:34:56;;;;;;;6.700001;6.099999;;;;;;;10.79;73.64258;95395.35;;;;
2022/09/02 00:35:57;;;;;;;6.700001;6.099999;;;;;;;10.79;73.64258;95395.35;;;;
2022/09/02 00:36:59;;;;;;;6.700001;6.099999;;;;;;;10.79;73.64258;95395.35;;;;
2022/09/02 00:37:59;;;;;;;7.3;6.050001;;;;;;;10.69;73.86035;95387.97;;;;
2022/09/02 00:39:00;;;;;;;7.3;6.050001;;;;;;;10.69;73.86035;95387.97;;;;
2022/09/02 00:40:03;;;;;;;7.3;6.050001;;;;;;;10.69;73.86035;95387.97;;;;
2022/09/02 00:41:06;;;;;;;7.3;6.050001;;;;;;;10.69;73.86035;95387.97;;;;
2022/09/02 00:42:10;;;;;;;7.3;6.050001;;;;;;;10.69;73.86035;95387.97;;;;
2022/09/02 00:43:11;;;;;;;7.3;6.050001;;;;;;;10.69;73.86035;95387.97;;;;
2022/09/02 00:44:22;;;;;;;7.3;6.050001;;;;;;;10.69;73.86035;95387.97;;;;
2022/09/02 00:45:23;;;;;;;7.3;6.050001;;;;;;;10.69;73.86035;95387.97;;;;
2022/09/02 00:46:24;;;;;;;7.3;6.050001;;;;;;;10.69;73.86035;95387.97;;;;
2022/09/02 00:47:30;;;;;;;7.3;6.050001;;;;;;;10.69;73.86035;95387.97;;;;
2022/09/02 00:48:30;;;;;;;7.75;6.249999;;;;;;;10.63;74.09961;95385.25;;;;
2022/09/02 00:49:31;;;;;;;7.75;6.249999;;;;;;;10.63;74.09961;95385.25;;;;
2022/09/02 00:50:37;;;;;;;7.75;6.249999;;;;;;;10.63;74.09961;95385.25;;;;
2022/09/02 00:51:38;;;;;;;7.75;6.249999;;;;;;;10.63;74.09961;95385.25;;;;
2022/09/02 00:52:42;;;;;;;7.75;6.249999;;;;;;;10.63;74.09961;95385.25;;;;
2022/09/02 00:53:46;;;;;;;7.75;6.249999;;;;;;;10.63;74.09961;95385.25;;;;
2022/09/02 00:54:48;;;;;;;7.75;6.249999;;;;;;;10.63;74.09961;95385.25;;;;
2022/09/02 00:55:52;;;;;;;7.75;6.249999;;;;;;;10.63;74.09961;95385.25;;;;
2022/09/02 00:56:53;;;;;;;7.75;6.249999;;;;;;;10.63;74.09961;95385.25;;;;
2022/09/02 00:57:55;;;;;;;7.75;6.249999;;;;;;;10.63;74.09961;95385.25;;;;
2022/09/02 00:58:59;;;;;;;7.75;6.249999;;;;;;;10.63;74.09961;95385.25;;;;
2022/09/02 01:00:00;;;;;;;7.7;6.1;;;;;;;10.49;74.37695;95380.11;;;;
2022/09/02 01:01:10;;;;;;;7.7;6.1;;;;;;;10.49;74.37695;95380.11;;;;
2022/09/02 01:02:10;;;;;;;7.7;6.1;;;;;;;10.49;74.37695;95380.11;;;;
2022/09/02 01:03:11;;;;;;;7.7;6.1;;;;;;;10.49;74.37695;95380.11;;;;
2022/09/02 01:04:16;;;;;;;7.7;6.1;;;;;;;10.49;74.37695;95380.11;;;;
2022/09/02 01:05:17;;;;;;;7.7;6.1;;;;;;;10.49;74.37695;95380.11;;;;
2022/09/02 01:06:21;;;;;;;7.7;6.1;;;;;;;10.49;74.37695;95380.11;;;;
2022/09/02 01:07:26;;;;;;;7.7;6.1;;;;;;;10.49;74.37695;95380.11;;;;
2022/09/02 01:08:31;;;;;;;7.7;6.1;;;;;;;10.49;74.37695;95380.11;;;;
2022/09/02 01:09:36;;;;;;;7.7;6.1;;;;;;;10.49;74.37695;95380.11;;;;
2022/09/02 01:10:37;;;;;;;7.2;6.45;;;;;;;10.45;74.65918;95377.19;;;;
2022/09/02 01:11:38;;;;;;;7.2;6.45;;;;;;;10.45;74.65918;95377.19;;;;
2022/09/02 01:12:41;;;;;;;7.2;6.45;;;;;;;10.45;74.65918;95377.19;;;;
2022/09/02 01:13:42;;;;;;;7.2;6.45;;;;;;;10.45;74.65918;95377.19;;;;
2022/09/02 01:14:43;;;;;;;7.2;6.45;;;;;;;10.45;74.65918;95377.19;;;;
2022/09/02 01:15:43;;;;;;;7.2;6.45;;;;;;;10.45;74.65918;95377.19;;;;
2022/09/02 01:16:46;;;;;;;7.2;6.45;;;;;;;10.45;74.65918;95377.19;;;;
2022/09/02 01:17:51;;;;;;;7.2;6.45;;;;;;;10.45;74.65918;95377.19;;;;
2022/09/02 01:18:52;;;;;;;7.2;6.45;;;;;;;10.45;74.65918;95377.19;;;;
2022/09/02 01:19:56;;;;;;;7.2;6.45;;;;;;;10.45;74.65918;95377.19;;;;
2022/09/02 01:21:03;;;;;;;7.2;6.45;;;;;;;10.45;74.65918;95377.19;;;;
2022/09/02 01:22:04;;;;;;;7.2;6.45;;;;;;;10.45;74.65918;95377.19;;;;
2022/09/02 01:23:15;;;;;;;7.2;6.45;;;;;;;10.45;74.65918;95377.19;;;;
2022/09/02 01:24:17;;;;;;;7.2;6.45;;;;;;;10.45;74.65918;95377.19;;;;
2022/09/02 01:25:20;;;;;;;7.2;6.45;;;;;;;10.45;74.65918;95377.19;;;;
2022/09/02 01:26:23;;;;;;;7.2;6.45;;;;;;;10.45;74.65918;95377.19;;;;
2022/09/02 01:27:24;;;;;;;7.2;6.45;;;;;;;10.45;74.65918;95377.19;;;;
2022/09/02 01:28:24;;;;;;;7.2;6.45;;;;;;;10.45;74.65918;95377.19;;;;
2022/09/02 01:29:25;;;;;;;7.2;6.45;;;;;;;10.45;74.65918;95377.19;;;;
2022/09/02 01:30:28;;;;;;;7.2;6.45;;;;;;;10.45;74.65918;95377.19;;;;
2022/09/02 01:31:30;;;;;;;8;7.000001;;;;;;;10.31;75.11035;95366.25;;;;
2022/09/02 01:32:30;;;;;;;8;7.000001;;;;;;;10.31;75.11035;95366.25;;;;
2022/09/02 01:33:31;;;;;;;8;7.000001;;;;;;;10.31;75.11035;95366.25;;;;
2022/09/02 01:34:31;;;;;;;8;7.000001;;;;;;;10.31;75.11035;95366.25;;;;
2022/09/02 01:35:32;;;;;;;8;7.000001;;;;;;;10.31;75.11035;95366.25;;;;
2022/09/02 01:36:33;;;;;;;8;7.000001;;;;;;;10.31;75.11035;95366.25;;;;
2022/09/02 01:37:37;;;;;;;8;7.000001;;;;;;;10.31;75.11035;95366.25;;;;
2022/09/02 01:38:38;;;;;;;8;7.000001;;;;;;;10.31;75.11035;95366.25;;;;
2022/09/02 01:39:39;;;;;;;8;7.000001;;;;;;;10.31;75.11035;95366.25;;;;
2022/09/02 01:40:39;;;;;;;8;7.000001;;;;;;;10.31;75.11035;95366.25;;;;
2022/09/02 01:41:40;;;;;;;8;7.000001;;;;;;;10.31;75.11035;95366.25;;;;
2022/09/02 01:42:41;;;;;;;8;7.000001;;;;;;;10.31;75.11035;95366.25;;;;
2022/09/02 01:43:43;;;;;;;8;7.000001;;;;;;;10.31;75.11035;95366.25;;;;
2022/09/02 01:44:44;;;;;;;8;7.000001;;;;;;;10.31;75.11035;95366.25;;;;
2022/09/02 01:45:44;;;;;;;8;7.000001;;;;;;;10.31;75.11035;95366.25;;;;
2022/09/02 01:46:47;;;;;;;8;7.000001;;;;;;;10.31;75.11035;95366.25;;;;
2022/09/02 01:47:47;;;;;;;8;7.000001;;;;;;;10.31;75.11035;95366.25;;;;
2022/09/02 01:48:48;;;;;;;8;7.000001;;;;;;;10.31;75.11035;95366.25;;;;
2022/09/02 01:49:49;;;;;;;8;7.000001;;;;;;;10.31;75.11035;95366.25;;;;
2022/09/02 01:50:50;;;;;;;8;7.000001;;;;;;;10.31;75.11035;95366.25;;;;
2022/09/02 01:51:54;;;;;;;8;7.000001;;;;;;;10.31;75.11035;95366.25;;;;
2022/09/02 01:52:55;;;;;;;7.7;6.9;;;;;;;10.24;75.62402;95356.73;;;;
2022/09/02 01:53:56;;;;;;;7.7;6.9;;;;;;;10.24;75.62402;95356.73;;;;
2022/09/02 01:54:56;;;;;;;7.7;6.9;;;;;;;10.24;75.62402;95356.73;;;;
2022/09/02 01:55:57;;;;;;;7.7;6.9;;;;;;;10.24;75.62402;95356.73;;;;
2022/09/02 01:56:58;;;;;;;7.7;6.9;;;;;;;10.24;75.62402;95356.73;;;;
2022/09/02 01:57:59;;;;;;;7.7;6.9;;;;;;;10.24;75.62402;95356.73;;;;
2022/09/02 01:59:01;;;;;;;7.7;6.9;;;;;;;10.24;75.62402;95356.73;;;;
2022/09/02 02:00:03;;;;;;;7.7;6.9;;;;;;;10.24;75.62402;95356.73;;;;
2022/09/02 02:01:06;;;;;;;7.7;6.9;;;;;;;10.24;75.62402;95356.73;;;;
2022/09/02 02:02:07;;;;;;;7.7;6.9;;;;;;;10.24;75.62402;95356.73;;;;
2022/09/02 02:03:08;;;;;;;7.7;6.9;;;;;;;10.24;75.62402;95356.73;;;;
2022/09/02 02:04:08;;;;;;;8.25;7.149999;;;;;;;10.15;75.74707;95354.94;;;;
2022/09/02 02:05:10;;;;;;;8.25;7.149999;;;;;;;10.15;75.74707;95354.94;;;;
2022/09/02 02:06:10;;;;;;;8.25;7.149999;;;;;;;10.15;75.74707;95354.94;;;;
2022/09/02 02:07:14;;;;;;;8.25;7.149999;;;;;;;10.15;75.74707;95354.94;;;;
2022/09/02 02:08:17;;;;;;;8.25;7.149999;;;;;;;10.15;75.74707;95354.94;;;;
2022/09/02 02:09:17;;;;;;;8.25;7.149999;;;;;;;10.15;75.74707;95354.94;;;;
2022/09/02 02:10:18;;;;;;;8.25;7.149999;;;;;;;10.15;75.74707;95354.94;;;;
2022/09/02 02:11:20;;;;;;;8.25;7.149999;;;;;;;10.15;75.74707;95354.94;;;;
2022/09/02 02:12:23;;;;;;;8.25;7.149999;;;;;;;10.15;75.74707;95354.94;;;;
2022/09/02 02:13:24;;;;;;;8.25;7.149999;;;;;;;10.15;75.74707;95354.94;;;;
2022/09/02 02:14:25;;;;;;;8.650002;7.849999;;;;;;;10.14;75.95996;95355.93;;;;
2022/09/02 02:15:26;;;;;;;8.650002;7.849999;;;;;;;10.14;75.95996;95355.93;;;;
2022/09/02 02:16:26;;;;;;;8.650002;7.849999;;;;;;;10.14;75.95996;95355.93;;;;
2022/09/02 02:17:27;;;;;;;8.650002;7.849999;;;;;;;10.14;75.95996;95355.93;;;;
2022/09/02 02:18:28;;;;;;;8.650002;7.849999;;;;;;;10.14;75.95996;95355.93;;;;
2022/09/02 02:19:29;;;;;;;8.650002;7.849999;;;;;;;10.14;75.95996;95355.93;;;;
2022/09/02 02:20:29;;;;;;;8.650002;7.849999;;;;;;;10.14;75.95996;95355.93;;;;
2022/09/02 02:21:30;;;;;;;8.650002;7.849999;;;;;;;10.14;75.95996;95355.93;;;;
2022/09/02 02:22:31;;;;;;;8.650002;7.849999;;;;;;;10.14;75.95996;95355.93;;;;
2022/09/02 02:23:32;;;;;;;8.650002;7.849999;;;;;;;10.14;75.95996;95355.93;;;;
2022/09/02 02:24:32;;;;;;;8.650002;7.849999;;;;;;;10.14;75.95996;95355.93;;;;
2022/09/02 02:25:33;;;;;;;9.1;8.299999;;;;;;;10.1;76.1582;95346.81;;;;
2022/09/02 02:26:33;;;;;;;9.1;8.299999;;;;;;;10.1;76.1582;95346.81;;;;
2022/09/02 02:27:34;;;;;;;9.1;8.299999;;;;;;;10.1;76.1582;95346.81;;;;
2022/09/02 02:28:35;;;;;;;9.1;8.299999;;;;;;;10.1;76.1582;95346.81;;;;
2022/09/02 02:29:36;;;;;;;9.1;8.299999;;;;;;;10.1;76.1582;95346.81;;;;
2022/09/02 02:30:37;;;;;;;9.1;8.299999;;;;;;;10.1;76.1582;95346.81;;;;
2022/09/02 02:31:37;;;;;;;9.1;8.299999;;;;;;;10.1;76.1582;95346.81;;;;
2022/09/02 02:32:38;;;;;;;9.1;8.299999;;;;;;;10.1;76.1582;95346.81;;;;
2022/09/02 02:33:39;;;;;;;9.1;8.299999;;;;;;;10.1;76.1582;95346.81;;;;
2022/09/02 02:34:40;;;;;;;9.1;8.299999;;;;;;;10.1;76.1582;95346.81;;;;
2022/09/02 02:35:40;;;;;;;9.650002;8.099998;;;;;;;10.12;76.35645;95347.31;;;;
2022/09/02 02:36:41;;;;;;;9.650002;8.099998;;;;;;;10.12;76.35645;95347.31;;;;
2022/09/02 02:37:43;;;;;;;9.650002;8.099998;;;;;;;10.12;76.35645;95347.31;;;;
2022/09/02 02:38:45;;;;;;;9.650002;8.099998;;;;;;;10.12;76.35645;95347.31;;;;
2022/09/02 02:39:46;;;;;;;9.650002;8.099998;;;;;;;10.12;76.35645;95347.31;;;;
2022/09/02 02:40:46;;;;;;;9.650002;8.099998;;;;;;;10.12;76.35645;95347.31;;;;
2022/09/02 02:41:47;;;;;;;9.650002;8.099998;;;;;;;10.12;76.35645;95347.31;;;;
2022/09/02 02:42:47;;;;;;;9.650002;8.099998;;;;;;;10.12;76.35645;95347.31;;;;
2022/09/02 02:43:48;;;;;;;9.650002;8.099998;;;;;;;10.12;76.35645;95347.31;;;;
2022/09/02 02:44:49;;;;;;;9.650002;8.099998;;;;;;;10.12;76.35645;95347.31;;;;
2022/09/02 02:45:50;;;;;;;9.650002;8.099998;;;;;;;10.12;76.35645;95347.31;;;;
2022/09/02 02:46:51;;;;;;;9.25;8.35;;;;;;;10.06;76.52734;95338.87;;;;
2022/09/02 02:47:51;;;;;;;9.25;8.35;;;;;;;10.06;76.52734;95338.87;;;;
2022/09/02 02:48:52;;;;;;;9.25;8.35;;;;;;;10.06;76.52734;95338.87;;;;
2022/09/02 02:49:53;;;;;;;9.25;8.35;;;;;;;10.06;76.52734;95338.87;;;;
2022/09/02 02:50:53;;;;;;;9.25;8.35;;;;;;;10.06;76.52734;95338.87;;;;
2022/09/02 02:51:54;;;;;;;9.25;8.35;;;;;;;10.06;76.52734;95338.87;;;;
2022/09/02 02:52:55;;;;;;;9.25;8.35;;;;;;;10.06;76.52734;95338.87;;;;
2022/09/02 02:53:56;;;;;;;9.25;8.35;;;;;;;10.06;76.52734;95338.87;;;;
2022/09/02 02:54:56;;;;;;;9.25;8.35;;;;;;;10.06;76.52734;95338.87;;;;
2022/09/02 02:55:57;;;;;;;9.25;8.35;;;;;;;10.06;76.52734;95338.87;;;;
2022/09/02 02:56:57;;;;;;;9.1;8.2;;;;;;;10.06;76.75098;95335.41;;;;
2022/09/02 02:57:58;;;;;;;9.1;8.2;;;;;;;10.06;76.75098;95335.41;;;;
2022/09/02 02:59:02;;;;;;;9.1;8.2;;;;;;;10.06;76.75098;95335.41;;;;
2022/09/02 03:00:02;;;;;;;9.1;8.2;;;;;;;10.06;76.75098;95335.41;;;;
2022/09/02 03:01:05;;;;;;;9.1;8.2;;;;;;;10.06;76.75098;95335.41;;;;
2022/09/02 03:02:06;;;;;;;9.1;8.2;;;;;;;10.06;76.75098;95335.41;;;;
2022/09/02 03:03:06;;;;;;;9.1;8.2;;;;;;;10.06;76.75098;95335.41;;;;
2022/09/02 03:04:09;;;;;;;9.1;8.2;;;;;;;10.06;76.75098;95335.41;;;;
2022/09/02 03:05:10;;;;;;;9.1;8.2;;;;;;;10.06;76.75098;95335.41;;;;
2022/09/02 03:06:12;;;;;;;9.1;8.2;;;;;;;10.06;76.75098;95335.41;;;;
2022/09/02 03:07:13;;;;;;;9.1;8.2;;;;;;;10.06;76.75098;95335.41;;;;
2022/09/02 03:08:13;;;;;;;9.1;8.2;;;;;;;10.06;76.75098;95335.41;;;;
2022/09/02 03:09:16;;;;;;;9.1;8.2;;;;;;;10.06;76.75098;95335.41;;;;
2022/09/02 03:10:16;;;;;;;9.1;8.2;;;;;;;10.06;76.75098;95335.41;;;;
2022/09/02 03:11:21;;;;;;;9.1;8.2;;;;;;;10.06;76.75098;95335.41;;;;
2022/09/02 03:12:22;;;;;;;9.1;8.2;;;;;;;10.06;76.75098;95335.41;;;;
2022/09/02 03:13:23;;;;;;;9.1;8.2;;;;;;;10.06;76.75098;95335.41;;;;
2022/09/02 03:14:25;;;;;;;9.1;8.2;;;;;;;10.06;76.75098;95335.41;;;;
2022/09/02 03:15:25;;;;;;;9.1;8.2;;;;;;;10.06;76.75098;95335.41;;;;
2022/09/02 03:16:27;;;;;;;9.1;8.2;;;;;;;10.06;76.75098;95335.41;;;;
2022/09/02 03:17:27;;;;;;;9.1;8.2;;;;;;;10.06;76.75098;95335.41;;;;
2022/09/02 03:18:28;;;;;;;10.3;8.649999;;;;;;;9.97;77.08008;95328.21;;;;
2022/09/02 03:19:29;;;;;;;10.3;8.649999;;;;;;;9.97;77.08008;95328.21;;;;
2022/09/02 03:20:30;;;;;;;10.3;8.649999;;;;;;;9.97;77.08008;95328.21;;;;
2022/09/02 03:21:30;;;;;;;10.3;8.649999;;;;;;;9.97;77.08008;95328.21;;;;
2022/09/02 03:22:31;;;;;;;10.3;8.649999;;;;;;;9.97;77.08008;95328.21;;;;
2022/09/02 03:23:31;;;;;;;10.3;8.649999;;;;;;;9.97;77.08008;95328.21;;;;
2022/09/02 03:24:32;;;;;;;10.3;8.649999;;;;;;;9.97;77.08008;95328.21;;;;
2022/09/02 03:25:33;;;;;;;10.3;8.649999;;;;;;;9.97;77.08008;95328.21;;;;
2022/09/02 03:26:34;;;;;;;10.3;8.649999;;;;;;;9.97;77.08008;95328.21;;;;
2022/09/02 03:27:35;;;;;;;10.3;8.649999;;;;;;;9.97;77.08008;95328.21;;;;
2022/09/02 03:28:37;;;;;;;10.3;8.649999;;;;;;;9.97;77.08008;95328.21;;;;
2022/09/02 03:29:39;;;;;;;9.15;8.3;;;;;;;9.86;77.21094;95322.75;;;;
2022/09/02 03:30:39;;;;;;;9.15;8.3;;;;;;;9.86;77.21094;95322.75;;;;
2022/09/02 03:31:41;;;;;;;9.15;8.3;;;;;;;9.86;77.21094;95322.75;;;;
2022/09/02 03:32:41;;;;;;;9.15;8.3;;;;;;;9.86;77.21094;95322.75;;;;
2022/09/02 03:33:42;;;;;;;9.15;8.3;;;;;;;9.86;77.21094;95322.75;;;;
2022/09/02 03:34:42;;;;;;;9.15;8.3;;;;;;;9.86;77.21094;95322.75;;;;
2022/09/02 03:35:43;;;;;;;9.15;8.3;;;;;;;9.86;77.21094;95322.75;;;;
2022/09/02 03:36:44;;;;;;;9.15;8.3;;;;;;;9.86;77.21094;95322.75;;;;
2022/09/02 03:37:44;;;;;;;9.15;8.3;;;;;;;9.86;77.21094;95322.75;;;;
2022/09/02 03:38:46;;;;;;;9.15;8.3;;;;;;;9.86;77.21094;95322.75;;;;
2022/09/02 03:39:47;;;;;;;9.15;8.3;;;;;;;9.86;77.21094;95322.75;;;;
2022/09/02 03:40:47;;;;;;;9.15;8.3;;;;;;;9.86;77.21094;95322.75;;;;
2022/09/02 03:41:49;;;;;;;9.15;8.3;;;;;;;9.86;77.21094;95322.75;;;;
2022/09/02 03:42:49;;;;;;;9.15;8.3;;;;;;;9.86;77.21094;95322.75;;;;
2022/09/02 03:43:51;;;;;;;9.15;8.3;;;;;;;9.86;77.21094;95322.75;;;;
2022/09/02 03:44:52;;;;;;;9.15;8.3;;;;;;;9.86;77.21094;95322.75;;;;
2022/09/02 03:45:52;;;;;;;9.15;8.3;;;;;;;9.86;77.21094;95322.75;;;;
2022/09/02 03:46:53;;;;;;;9.15;8.3;;;;;;;9.86;77.21094;95322.75;;;;
2022/09/02 03:47:53;;;;;;;9.15;8.3;;;;;;;9.86;77.21094;95322.75;;;;
2022/09/02 03:48:55;;;;;;;9.15;8.3;;;;;;;9.86;77.21094;95322.75;;;;
2022/09/02 03:49:56;;;;;;;9.15;8.3;;;;;;;9.86;77.21094;95322.75;;;;
2022/09/02 03:50:56;;;;;;;9.15;8.3;;;;;;;9.86;77.21094;95322.75;;;;
2022/09/02 03:51:57;;;;;;;9.15;8.3;;;;;;;9.86;77.21094;95322.75;;;;
2022/09/02 03:52:57;;;;;;;9.15;8.3;;;;;;;9.86;77.21094;95322.75;;;;
2022/09/02 03:54:01;;;;;;;9.15;8.3;;;;;;;9.86;77.21094;95322.75;;;;
2022/09/02 03:55:02;;;;;;;9.15;8.3;;;;;;;9.86;77.21094;95322.75;;;;
2022/09/02 03:56:02;;;;;;;9.15;8.3;;;;;;;9.86;77.21094;95322.75;;;;
2022/09/02 03:57:04;;;;;;;9.15;8.3;;;;;;;9.86;77.21094;95322.75;;;;
2022/09/02 03:58:05;;;;;;;9.15;8.3;;;;;;;9.86;77.21094;95322.75;;;;
2022/09/02 03:59:05;;;;;;;9.15;8.3;;;;;;;9.86;77.21094;95322.75;;;;
2022/09/02 04:00:06;;;;;;;9.15;8.3;;;;;;;9.86;77.21094;95322.75;;;;
2022/09/02 04:01:09;;;;;;;9.65;8.649999;;;;;;;9.61;77.78809;95312.55;;;;
2022/09/02 04:02:13;;;;;;;9.65;8.649999;;;;;;;9.61;77.78809;95312.55;;;;
2022/09/02 04:03:14;;;;;;;9.65;8.649999;;;;;;;9.61;77.78809;95312.55;;;;
2022/09/02 04:04:15;;;;;;;9.65;8.649999;;;;;;;9.61;77.78809;95312.55;;;;
2022/09/02 04:05:15;;;;;;;9.65;8.649999;;;;;;;9.61;77.78809;95312.55;;;;
2022/09/02 04:06:17;;;;;;;9.65;8.649999;;;;;;;9.61;77.78809;95312.55;;;;
2022/09/02 04:07:20;;;;;;;9.65;8.649999;;;;;;;9.61;77.78809;95312.55;;;;
2022/09/02 04:08:21;;;;;;;9.65;8.649999;;;;;;;9.61;77.78809;95312.55;;;;
2022/09/02 04:09:22;;;;;;;9.65;8.649999;;;;;;;9.61;77.78809;95312.55;;;;
2022/09/02 04:10:23;;;;;;;9.65;8.649999;;;;;;;9.61;77.78809;95312.55;;;;
2022/09/02 04:11:24;;;;;;;10.3;9.200001;;;;;;;9.49;77.95898;95308.9;;;;
2022/09/02 04:12:25;;;;;;;10.3;9.200001;;;;;;;9.49;77.95898;95308.9;;;;
2022/09/02 04:13:25;;;;;;;10.3;9.200001;;;;;;;9.49;77.95898;95308.9;;;;
2022/09/02 04:14:26;;;;;;;10.3;9.200001;;;;;;;9.49;77.95898;95308.9;;;;
2022/09/02 04:15:26;;;;;;;10.3;9.200001;;;;;;;9.49;77.95898;95308.9;;;;
2022/09/02 04:16:27;;;;;;;10.3;9.200001;;;;;;;9.49;77.95898;95308.9;;;;
2022/09/02 04:17:28;;;;;;;10.3;9.200001;;;;;;;9.49;77.95898;95308.9;;;;
2022/09/02 04:18:28;;;;;;;10.3;9.200001;;;;;;;9.49;77.95898;95308.9;;;;
2022/09/02 04:19:29;;;;;;;10.3;9.200001;;;;;;;9.49;77.95898;95308.9;;;;
2022/09/02 04:20:29;;;;;;;10.3;9.200001;;;;;;;9.49;77.95898;95308.9;;;;
2022/09/02 04:21:30;;;;;;;10.3;9.200001;;;;;;;9.49;77.95898;95308.9;;;;
2022/09/02 04:22:33;;;;;;;10.65;9.649999;;;;;;;9.46;78.11621;95307.99;;;;
2022/09/02 04:23:34;;;;;;;10.65;9.649999;;;;;;;9.46;78.11621;95307.99;;;;
2022/09/02 04:24:35;;;;;;;10.65;9.649999;;;;;;;9.46;78.11621;95307.99;;;;
2022/09/02 04:25:36;;;;;;;10.65;9.649999;;;;;;;9.46;78.11621;95307.99;;;;
2022/09/02 04:26:38;;;;;;;10.65;9.649999;;;;;;;9.46;78.11621;95307.99;;;;
2022/09/02 04:27:39;;;;;;;10.65;9.649999;;;;;;;9.46;78.11621;95307.99;;;;
2022/09/02 04:28:39;;;;;;;10.65;9.649999;;;;;;;9.46;78.11621;95307.99;;;;
2022/09/02 04:29:40;;;;;;;10.65;9.649999;;;;;;;9.46;78.11621;95307.99;;;;
2022/09/02 04:30:40;;;;;;;10.65;9.649999;;;;;;;9.46;78.11621;95307.99;;;;
2022/09/02 04:31:42;;;;;;;10.65;9.649999;;;;;;;9.46;78.11621;95307.99;;;;
2022/09/02 04:32:43;;;;;;;10.65;9.649999;;;;;;;9.46;78.11621;95307.99;;;;
2022/09/02 04:33:43;;;;;;;11.65;10.45;;;;;;;9.4;78.29883;95305.68;;;;
2022/09/02 04:34:45;;;;;;;11.65;10.45;;;;;;;9.4;78.29883;95305.68;;;;
2022/09/02 04:35:46;;;;;;;11.65;10.45;;;;;;;9.4;78.29883;95305.68;;;;
2022/09/02 04:36:47;;;;;;;11.65;10.45;;;;;;;9.4;78.29883;95305.68;;;;
2022/09/02 04:37:47;;;;;;;11.65;10.45;;;;;;;9.4;78.29883;95305.68;;;;
2022/09/02 04:38:48;;;;;;;11.65;10.45;;;;;;;9.4;78.29883;95305.68;;;;
2022/09/02 04:39:49;;;;;;;11.65;10.45;;;;;;;9.4;78.29883;95305.68;;;;
2022/09/02 04:40:50;;;;;;;11.65;10.45;;;;;;;9.4;78.29883;95305.68;;;;
2022/09/02 04:41:52;;;;;;;11.65;10.45;;;;;;;9.4;78.29883;95305.68;;;;
2022/09/02 04:42:54;;;;;;;11.65;10.45;;;;;;;9.4;78.29883;95305.68;;;;
2022/09/02 04:43:55;;;;;;;14.7;13.15;;;;;;;9.45;78.41504;95305.47;;;;
2022/09/02 04:44:58;;;;;;;14.7;13.15;;;;;;;9.45;78.41504;95305.47;;;;
2022/09/02 04:45:59;;;;;;;14.7;13.15;;;;;;;9.45;78.41504;95305.47;;;;
2022/09/02 04:47:01;;;;;;;14.7;13.15;;;;;;;9.45;78.41504;95305.47;;;;
2022/09/02 04:48:01;;;;;;;14.7;13.15;;;;;;;9.45;78.41504;95305.47;;;;
2022/09/02 04:49:02;;;;;;;14.7;13.15;;;;;;;9.45;78.41504;95305.47;;;;
2022/09/02 04:50:05;;;;;;;14.7;13.15;;;;;;;9.45;78.41504;95305.47;;;;
2022/09/02 04:51:06;;;;;;;14.7;13.15;;;;;;;9.45;78.41504;95305.47;;;;
2022/09/02 04:52:09;;;;;;;14.7;13.15;;;;;;;9.45;78.41504;95305.47;;;;
2022/09/02 04:53:10;;;;;;;14.7;13.15;;;;;;;9.45;78.41504;95305.47;;;;
2022/09/02 04:54:11;;;;;;;15.85;13.7;;;;;;;9.5;78.45508;95309.22;;;;
2022/09/02 04:55:11;;;;;;;15.85;13.7;;;;;;;9.5;78.45508;95309.22;;;;
2022/09/02 04:56:13;;;;;;;15.85;13.7;;;;;;;9.5;78.45508;95309.22;;;;
2022/09/02 04:57:17;;;;;;;15.85;13.7;;;;;;;9.5;78.45508;95309.22;;;;
2022/09/02 04:58:17;;;;;;;15.85;13.7;;;;;;;9.5;78.45508;95309.22;;;;
2022/09/02 04:59:20;;;;;;;15.85;13.7;;;;;;;9.5;78.45508;95309.22;;;;
2022/09/02 05:00:20;;;;;;;15.85;13.7;;;;;;;9.5;78.45508;95309.22;;;;
2022/09/02 05:01:21;;;;;;;15.85;13.7;;;;;;;9.5;78.45508;95309.22;;;;
2022/09/02 05:02:24;;;;;;;15.85;13.7;;;;;;;9.5;78.45508;95309.22;;;;
2022/09/02 05:03:25;;;;;;;15.85;13.7;;;;;;;9.5;78.45508;95309.22;;;;
2022/09/02 05:04:30;;;;;;;15.85;13.7;;;;;;;9.5;78.45508;95309.22;;;;
2022/09/02 05:05:31;;;;;;;15.6;14.05;;;;;;;9.6;78.62402;95313.46;;;;
2022/09/02 05:06:32;;;;;;;15.6;14.05;;;;;;;9.6;78.62402;95313.46;;;;
2022/09/02 05:07:33;;;;;;;15.6;14.05;;;;;;;9.6;78.62402;95313.46;;;;
2022/09/02 05:08:35;;;;;;;15.6;14.05;;;;;;;9.6;78.62402;95313.46;;;;
2022/09/02 05:09:36;;;;;;;15.6;14.05;;;;;;;9.6;78.62402;95313.46;;;;
2022/09/02 05:10:37;;;;;;;15.6;14.05;;;;;;;9.6;78.62402;95313.46;;;;
2022/09/02 05:11:38;;;;;;;15.6;14.05;;;;;;;9.6;78.62402;95313.46;;;;
2022/09/02 05:12:39;;;;;;;15.6;14.05;;;;;;;9.6;78.62402;95313.46;;;;
2022/09/02 05:13:40;;;;;;;15.6;14.05;;;;;;;9.6;78.62402;95313.46;;;;
2022/09/02 05:14:40;;;;;;;15.6;14.05;;;;;;;9.6;78.62402;95313.46;;;;
2022/09/02 05:15:42;;;;;;;15.6;14.05;;;;;;;9.6;78.62402;95313.46;;;;
2022/09/02 05:16:44;;;;;;;15.6;14.05;;;;;;;9.6;78.62402;95313.46;;;;
2022/09/02 05:17:45;;;;;;;15.6;14.05;;;;;;;9.6;78.62402;95313.46;;;;
2022/09/02 05:18:45;;;;;;;15.6;14.05;;;;;;;9.6;78.62402;95313.46;;;;
2022/09/02 05:19:46;;;;;;;15.6;14.05;;;;;;;9.6;78.62402;95313.46;;;;
2022/09/02 05:20:47;;;;;;;15.6;14.05;;;;;;;9.6;78.62402;95313.46;;;;
2022/09/02 05:21:48;;;;;;;15.6;14.05;;;;;;;9.6;78.62402;95313.46;;;;
2022/09/02 05:22:50;;;;;;;15.6;14.05;;;;;;;9.6;78.62402;95313.46;;;;
2022/09/02 05:23:50;;;;;;;15.6;14.05;;;;;;;9.6;78.62402;95313.46;;;;
2022/09/02 05:24:53;;;;;;;15.6;14.05;;;;;;;9.6;78.62402;95313.46;;;;
2022/09/02 05:25:53;;;;;;;15.6;14.05;;;;;;;9.6;78.62402;95313.46;;;;
2022/09/02 05:26:54;;;;;;;18;16.15;;;;;;;10.01;78.65527;95311.45;;;;
2022/09/02 05:27:54;;;;;;;18;16.15;;;;;;;10.01;78.65527;95311.45;;;;
2022/09/02 05:28:55;;;;;;;18;16.15;;;;;;;10.01;78.65527;95311.45;;;;
2022/09/02 05:29:55;;;;;;;18;16.15;;;;;;;10.01;78.65527;95311.45;;;;
2022/09/02 05:30:56;;;;;;;18;16.15;;;;;;;10.01;78.65527;95311.45;;;;
2022/09/02 05:32:03;;;;;;;18;16.15;;;;;;;10.01;78.65527;95311.45;;;;
2022/09/02 05:33:04;;;;;;;18;16.15;;;;;;;10.01;78.65527;95311.45;;;;
2022/09/02 05:34:05;;;;;;;18;16.15;;;;;;;10.01;78.65527;95311.45;;;;
2022/09/02 05:35:05;;;;;;;18;16.15;;;;;;;10.01;78.65527;95311.45;;;;
2022/09/02 05:36:07;;;;;;;18;16.15;;;;;;;10.01;78.65527;95311.45;;;;
2022/09/02 05:37:09;;;;;;;18;16.15;;;;;;;10.01;78.65527;95311.45;;;;
2022/09/02 05:38:10;;;;;;;18;16.15;;;;;;;10.01;78.65527;95311.45;;;;
2022/09/02 05:39:11;;;;;;;18;16.15;;;;;;;10.01;78.65527;95311.45;;;;
2022/09/02 05:40:11;;;;;;;18;16.15;;;;;;;10.01;78.65527;95311.45;;;;
2022/09/02 05:41:13;;;;;;;18;16.15;;;;;;;10.01;78.65527;95311.45;;;;